Terminal Aerodrome Forecast
Issued by NWS Lake Charles, LA

Home | Current Version | Previous Version | Text Only | Print | Product List | Glossary On
Versions: 1 2 3 4 5 6 7 8 9 10 11 12 13 14 15 16 17 18 19
000
FTUS44 KLCH 260709 AAA
TAFBPT
TAF AMD
KBPT 260709Z 2607/2706 00000KT 1/2SM FG OVC004
     FM261500 17006KT P6SM BKN015
     FM261800 17012G18KT P6SM BKN025
     FM270100 16010KT P6SM SCT025=

USA.gov is the U.S. government's official web portal to all federal, state and local government web resources and services.